sensor_id;sensor_type;location;lat;lon;timestamp;P1;durP1;ratioP1;P2;durP2;ratioP2
76262;SDS011;65080;50.908;6.916;2023-08-06T00:00:49;5.83;;;2.73;;
76262;SDS011;65080;50.908;6.916;2023-08-06T00:03:18;3.70;;;2.53;;
76262;SDS011;65080;50.908;6.916;2023-08-06T00:05:46;2.80;;;2.37;;
76262;SDS011;65080;50.908;6.916;2023-08-06T00:08:16;4.13;;;2.77;;
76262;SDS011;65080;50.908;6.916;2023-08-06T00:10:47;3.83;;;3.00;;
76262;SDS011;65080;50.908;6.916;2023-08-06T00:13:15;4.07;;;2.17;;
76262;SDS011;65080;50.908;6.916;2023-08-06T00:15:43;4.93;;;3.40;;
76262;SDS011;65080;50.908;6.916;2023-08-06T00:18:12;3.93;;;2.70;;
76262;SDS011;65080;50.908;6.916;2023-08-06T00:20:40;3.03;;;2.60;;
76262;SDS011;65080;50.908;6.916;2023-08-06T00:23:08;2.90;;;2.60;;
76262;SDS011;65080;50.908;6.916;2023-08-06T00:25:38;3.90;;;2.50;;
76262;SDS011;65080;50.908;6.916;2023-08-06T00:28:06;4.17;;;2.80;;
76262;SDS011;65080;50.908;6.916;2023-08-06T00:30:34;2.90;;;2.30;;
76262;SDS011;65080;50.908;6.916;2023-08-06T00:33:02;3.80;;;2.40;;
76262;SDS011;65080;50.908;6.916;2023-08-06T00:35:31;3.63;;;2.80;;
76262;SDS011;65080;50.908;6.916;2023-08-06T00:37:59;4.50;;;2.33;;
76262;SDS011;65080;50.908;6.916;2023-08-06T00:40:27;3.47;;;2.57;;
76262;SDS011;65080;50.908;6.916;2023-08-06T00:42:58;7.90;;;2.90;;
76262;SDS011;65080;50.908;6.916;2023-08-06T00:45:26;3.57;;;2.80;;
76262;SDS011;65080;50.908;6.916;2023-08-06T00:47:56;3.47;;;2.83;;
76262;SDS011;65080;50.908;6.916;2023-08-06T00:50:24;4.47;;;3.10;;
76262;SDS011;65080;50.908;6.916;2023-08-06T00:52:53;4.30;;;2.50;;
76262;SDS011;65080;50.908;6.916;2023-08-06T00:55:22;3.60;;;2.77;;
76262;SDS011;65080;50.908;6.916;2023-08-06T00:57:50;5.13;;;3.33;;
76262;SDS011;65080;50.908;6.916;2023-08-06T01:00:21;3.70;;;2.70;;
76262;SDS011;65080;50.908;6.916;2023-08-06T01:02:50;4.83;;;2.50;;
76262;SDS011;65080;50.908;6.916;2023-08-06T01:05:20;3.80;;;2.90;;
76262;SDS011;65080;50.908;6.916;2023-08-06T01:07:51;3.50;;;2.60;;
76262;SDS011;65080;50.908;6.916;2023-08-06T01:10:39;3.53;;;2.50;;
76262;SDS011;65080;50.908;6.916;2023-08-06T01:13:18;3.67;;;2.30;;
76262;SDS011;65080;50.908;6.916;2023-08-06T01:15:54;6.13;;;2.60;;
76262;SDS011;65080;50.908;6.916;2023-08-06T01:18:24;5.20;;;2.63;;
76262;SDS011;65080;50.908;6.916;2023-08-06T01:20:54;3.17;;;2.87;;
76262;SDS011;65080;50.908;6.916;2023-08-06T01:23:23;3.57;;;2.60;;
76262;SDS011;65080;50.908;6.916;2023-08-06T01:25:53;4.77;;;2.63;;
76262;SDS011;65080;50.908;6.916;2023-08-06T01:28:32;3.57;;;2.60;;
76262;SDS011;65080;50.908;6.916;2023-08-06T01:31:09;2.97;;;2.40;;
76262;SDS011;65080;50.908;6.916;2023-08-06T01:33:44;3.10;;;2.60;;
76262;SDS011;65080;50.908;6.916;2023-08-06T01:36:16;3.80;;;2.50;;
76262;SDS011;65080;50.908;6.916;2023-08-06T01:38:46;3.10;;;2.63;;
76262;SDS011;65080;50.908;6.916;2023-08-06T01:41:15;4.50;;;3.10;;
76262;SDS011;65080;50.908;6.916;2023-08-06T01:43:43;6.33;;;3.63;;
76262;SDS011;65080;50.908;6.916;2023-08-06T01:46:11;3.70;;;2.57;;
76262;SDS011;65080;50.908;6.916;2023-08-06T01:48:40;2.80;;;2.43;;
76262;SDS011;65080;50.908;6.916;2023-08-06T01:51:08;4.77;;;2.47;;
76262;SDS011;65080;50.908;6.916;2023-08-06T01:53:38;6.73;;;2.63;;
76262;SDS011;65080;50.908;6.916;2023-08-06T01:56:06;5.90;;;2.80;;
76262;SDS011;65080;50.908;6.916;2023-08-06T01:58:34;3.20;;;2.40;;
76262;SDS011;65080;50.908;6.916;2023-08-06T02:01:03;4.70;;;2.77;;
76262;SDS011;65080;50.908;6.916;2023-08-06T02:03:31;4.40;;;2.30;;
76262;SDS011;65080;50.908;6.916;2023-08-06T02:05:59;4.80;;;2.90;;
76262;SDS011;65080;50.908;6.916;2023-08-06T02:08:27;3.77;;;2.10;;
76262;SDS011;65080;50.908;6.916;2023-08-06T02:10:57;3.57;;;2.67;;
76262;SDS011;65080;50.908;6.916;2023-08-06T02:13:26;2.70;;;2.50;;
76262;SDS011;65080;50.908;6.916;2023-08-06T02:15:54;4.70;;;2.87;;
76262;SDS011;65080;50.908;6.916;2023-08-06T02:18:22;4.67;;;2.50;;
76262;SDS011;65080;50.908;6.916;2023-08-06T02:20:57;3.53;;;2.53;;
76262;SDS011;65080;50.908;6.916;2023-08-06T02:23:26;4.80;;;3.10;;
76262;SDS011;65080;50.908;6.916;2023-08-06T02:25:59;5.10;;;2.83;;
76262;SDS011;65080;50.908;6.916;2023-08-06T02:28:28;3.90;;;2.30;;
76262;SDS011;65080;50.908;6.916;2023-08-06T02:30:57;6.37;;;3.03;;
76262;SDS011;65080;50.908;6.916;2023-08-06T02:33:25;4.17;;;2.67;;
76262;SDS011;65080;50.908;6.916;2023-08-06T02:35:58;6.90;;;3.10;;
76262;SDS011;65080;50.908;6.916;2023-08-06T02:38:28;4.70;;;2.57;;
76262;SDS011;65080;50.908;6.916;2023-08-06T02:40:56;3.90;;;3.10;;
76262;SDS011;65080;50.908;6.916;2023-08-06T02:43:26;6.37;;;2.53;;
76262;SDS011;65080;50.908;6.916;2023-08-06T02:45:56;3.13;;;2.83;;
76262;SDS011;65080;50.908;6.916;2023-08-06T02:48:25;4.10;;;2.67;;
76262;SDS011;65080;50.908;6.916;2023-08-06T02:50:56;4.43;;;2.97;;
76262;SDS011;65080;50.908;6.916;2023-08-06T02:53:25;3.77;;;2.77;;
76262;SDS011;65080;50.908;6.916;2023-08-06T02:55:53;3.90;;;2.60;;
76262;SDS011;65080;50.908;6.916;2023-08-06T02:58:22;3.27;;;2.90;;
76262;SDS011;65080;50.908;6.916;2023-08-06T03:01:01;4.40;;;3.10;;
76262;SDS011;65080;50.908;6.916;2023-08-06T03:03:30;3.33;;;2.20;;
76262;SDS011;65080;50.908;6.916;2023-08-06T03:05:59;5.17;;;3.10;;
76262;SDS011;65080;50.908;6.916;2023-08-06T03:08:27;3.37;;;2.70;;
76262;SDS011;65080;50.908;6.916;2023-08-06T03:10:55;3.80;;;2.70;;
76262;SDS011;65080;50.908;6.916;2023-08-06T03:13:23;4.73;;;3.00;;
76262;SDS011;65080;50.908;6.916;2023-08-06T03:15:52;3.53;;;2.60;;
76262;SDS011;65080;50.908;6.916;2023-08-06T03:18:22;3.43;;;2.50;;
76262;SDS011;65080;50.908;6.916;2023-08-06T03:20:52;4.80;;;2.07;;
76262;SDS011;65080;50.908;6.916;2023-08-06T03:23:21;8.83;;;2.60;;
76262;SDS011;65080;50.908;6.916;2023-08-06T03:25:49;8.43;;;2.33;;
76262;SDS011;65080;50.908;6.916;2023-08-06T03:28:17;5.53;;;2.10;;
76262;SDS011;65080;50.908;6.916;2023-08-06T03:30:46;5.90;;;2.50;;
76262;SDS011;65080;50.908;6.916;2023-08-06T03:33:14;3.20;;;2.30;;
76262;SDS011;65080;50.908;6.916;2023-08-06T03:35:44;5.60;;;2.80;;
76262;SDS011;65080;50.908;6.916;2023-08-06T03:38:12;6.57;;;3.07;;
76262;SDS011;65080;50.908;6.916;2023-08-06T03:40:41;4.43;;;3.10;;
76262;SDS011;65080;50.908;6.916;2023-08-06T03:43:10;4.27;;;2.90;;
76262;SDS011;65080;50.908;6.916;2023-08-06T03:45:38;5.23;;;2.73;;
76262;SDS011;65080;50.908;6.916;2023-08-06T03:48:07;5.03;;;2.90;;
76262;SDS011;65080;50.908;6.916;2023-08-06T03:50:36;4.10;;;2.30;;
76262;SDS011;65080;50.908;6.916;2023-08-06T03:53:06;2.87;;;2.23;;
76262;SDS011;65080;50.908;6.916;2023-08-06T03:55:34;7.83;;;3.73;;
76262;SDS011;65080;50.908;6.916;2023-08-06T03:58:02;4.63;;;2.20;;
76262;SDS011;65080;50.908;6.916;2023-08-06T04:00:30;5.27;;;2.67;;
76262;SDS011;65080;50.908;6.916;2023-08-06T04:02:59;4.67;;;2.57;;
76262;SDS011;65080;50.908;6.916;2023-08-06T04:05:27;4.80;;;2.80;;
76262;SDS011;65080;50.908;6.916;2023-08-06T04:07:58;3.50;;;2.60;;
76262;SDS011;65080;50.908;6.916;2023-08-06T04:10:28;4.00;;;2.70;;
76262;SDS011;65080;50.908;6.916;2023-08-06T04:12:57;4.70;;;3.20;;
76262;SDS011;65080;50.908;6.916;2023-08-06T04:15:25;7.63;;;3.03;;
76262;SDS011;65080;50.908;6.916;2023-08-06T04:17:53;4.83;;;2.67;;
76262;SDS011;65080;50.908;6.916;2023-08-06T04:20:23;3.50;;;2.97;;
76262;SDS011;65080;50.908;6.916;2023-08-06T04:22:53;4.00;;;2.90;;
76262;SDS011;65080;50.908;6.916;2023-08-06T04:25:22;3.17;;;2.87;;
76262;SDS011;65080;50.908;6.916;2023-08-06T04:27:52;5.93;;;2.87;;
76262;SDS011;65080;50.908;6.916;2023-08-06T04:30:20;3.60;;;3.17;;
76262;SDS011;65080;50.908;6.916;2023-08-06T04:32:49;4.30;;;2.50;;
76262;SDS011;65080;50.908;6.916;2023-08-06T04:35:17;7.07;;;2.80;;
76262;SDS011;65080;50.908;6.916;2023-08-06T04:37:45;3.27;;;2.70;;
76262;SDS011;65080;50.908;6.916;2023-08-06T04:40:14;6.40;;;2.70;;
76262;SDS011;65080;50.908;6.916;2023-08-06T04:42:42;3.77;;;2.63;;
76262;SDS011;65080;50.908;6.916;2023-08-06T04:45:12;5.47;;;2.80;;
76262;SDS011;65080;50.908;6.916;2023-08-06T04:47:40;8.40;;;3.10;;
76262;SDS011;65080;50.908;6.916;2023-08-06T04:50:09;8.80;;;2.87;;
76262;SDS011;65080;50.908;6.916;2023-08-06T04:52:37;5.77;;;3.40;;
76262;SDS011;65080;50.908;6.916;2023-08-06T04:55:06;3.27;;;2.73;;
76262;SDS011;65080;50.908;6.916;2023-08-06T04:57:34;4.90;;;3.50;;
76262;SDS011;65080;50.908;6.916;2023-08-06T05:00:03;3.50;;;2.70;;
76262;SDS011;65080;50.908;6.916;2023-08-06T05:02:33;3.67;;;3.17;;
76262;SDS011;65080;50.908;6.916;2023-08-06T05:05:04;4.77;;;3.27;;
76262;SDS011;65080;50.908;6.916;2023-08-06T05:07:33;3.33;;;2.73;;
76262;SDS011;65080;50.908;6.916;2023-08-06T05:10:01;4.93;;;2.97;;
76262;SDS011;65080;50.908;6.916;2023-08-06T05:12:31;7.40;;;2.70;;
76262;SDS011;65080;50.908;6.916;2023-08-06T05:14:59;5.70;;;3.30;;
76262;SDS011;65080;50.908;6.916;2023-08-06T05:17:27;5.30;;;3.40;;
76262;SDS011;65080;50.908;6.916;2023-08-06T05:19:57;5.00;;;3.30;;
76262;SDS011;65080;50.908;6.916;2023-08-06T05:22:25;3.63;;;3.07;;
76262;SDS011;65080;50.908;6.916;2023-08-06T05:24:54;4.20;;;3.43;;
76262;SDS011;65080;50.908;6.916;2023-08-06T05:27:22;4.63;;;3.10;;
76262;SDS011;65080;50.908;6.916;2023-08-06T05:29:50;5.63;;;2.90;;
76262;SDS011;65080;50.908;6.916;2023-08-06T05:32:23;4.80;;;2.80;;
76262;SDS011;65080;50.908;6.916;2023-08-06T05:34:51;5.10;;;2.70;;
76262;SDS011;65080;50.908;6.916;2023-08-06T05:37:21;4.50;;;2.70;;
76262;SDS011;65080;50.908;6.916;2023-08-06T05:39:49;4.67;;;3.00;;
76262;SDS011;65080;50.908;6.916;2023-08-06T05:42:18;5.77;;;2.80;;
76262;SDS011;65080;50.908;6.916;2023-08-06T05:44:46;4.47;;;2.80;;
76262;SDS011;65080;50.908;6.916;2023-08-06T05:47:14;5.10;;;3.10;;
76262;SDS011;65080;50.908;6.916;2023-08-06T05:49:43;5.07;;;2.80;;
76262;SDS011;65080;50.908;6.916;2023-08-06T05:52:11;3.53;;;2.20;;
76262;SDS011;65080;50.908;6.916;2023-08-06T05:54:40;3.63;;;2.53;;
76262;SDS011;65080;50.908;6.916;2023-08-06T05:57:09;4.30;;;2.70;;
76262;SDS011;65080;50.908;6.916;2023-08-06T05:59:37;5.57;;;3.20;;
76262;SDS011;65080;50.908;6.916;2023-08-06T06:02:05;4.00;;;2.57;;
76262;SDS011;65080;50.908;6.916;2023-08-06T06:04:34;4.30;;;2.60;;
76262;SDS011;65080;50.908;6.916;2023-08-06T06:07:02;5.90;;;2.30;;
76262;SDS011;65080;50.908;6.916;2023-08-06T06:09:31;4.50;;;1.93;;
76262;SDS011;65080;50.908;6.916;2023-08-06T06:12:01;3.40;;;2.40;;
76262;SDS011;65080;50.908;6.916;2023-08-06T06:14:29;4.03;;;1.73;;
76262;SDS011;65080;50.908;6.916;2023-08-06T06:16:58;2.80;;;1.90;;
76262;SDS011;65080;50.908;6.916;2023-08-06T06:19:27;5.57;;;2.17;;
76262;SDS011;65080;50.908;6.916;2023-08-06T06:21:55;2.90;;;1.83;;
76262;SDS011;65080;50.908;6.916;2023-08-06T06:24:24;4.53;;;1.67;;
76262;SDS011;65080;50.908;6.916;2023-08-06T06:26:52;2.20;;;1.37;;
76262;SDS011;65080;50.908;6.916;2023-08-06T06:29:22;3.03;;;1.70;;
76262;SDS011;65080;50.908;6.916;2023-08-06T06:31:50;2.93;;;1.50;;
76262;SDS011;65080;50.908;6.916;2023-08-06T06:34:19;1.70;;;1.20;;
76262;SDS011;65080;50.908;6.916;2023-08-06T06:36:47;1.50;;;1.33;;
76262;SDS011;65080;50.908;6.916;2023-08-06T06:39:15;2.13;;;1.00;;
76262;SDS011;65080;50.908;6.916;2023-08-06T06:41:45;1.10;;;0.90;;
76262;SDS011;65080;50.908;6.916;2023-08-06T06:44:13;2.40;;;0.93;;
76262;SDS011;65080;50.908;6.916;2023-08-06T06:46:43;1.40;;;1.00;;
76262;SDS011;65080;50.908;6.916;2023-08-06T06:49:11;2.60;;;1.00;;
76262;SDS011;65080;50.908;6.916;2023-08-06T06:51:40;0.93;;;0.80;;
76262;SDS011;65080;50.908;6.916;2023-08-06T06:54:08;2.17;;;1.13;;
76262;SDS011;65080;50.908;6.916;2023-08-06T06:56:36;2.50;;;1.13;;
76262;SDS011;65080;50.908;6.916;2023-08-06T06:59:05;1.83;;;1.00;;
76262;SDS011;65080;50.908;6.916;2023-08-06T07:01:33;1.70;;;1.10;;
76262;SDS011;65080;50.908;6.916;2023-08-06T07:04:03;1.23;;;0.93;;
76262;SDS011;65080;50.908;6.916;2023-08-06T07:06:31;2.00;;;1.37;;
76262;SDS011;65080;50.908;6.916;2023-08-06T07:09:00;2.57;;;1.20;;
76262;SDS011;65080;50.908;6.916;2023-08-06T07:11:28;3.63;;;1.40;;
76262;SDS011;65080;50.908;6.916;2023-08-06T07:13:56;2.40;;;1.17;;
76262;SDS011;65080;50.908;6.916;2023-08-06T07:16:25;1.30;;;1.03;;
76262;SDS011;65080;50.908;6.916;2023-08-06T07:18:54;2.07;;;1.20;;
76262;SDS011;65080;50.908;6.916;2023-08-06T07:21:24;1.40;;;1.30;;
76262;SDS011;65080;50.908;6.916;2023-08-06T07:23:52;1.73;;;1.40;;
76262;SDS011;65080;50.908;6.916;2023-08-06T07:26:21;4.73;;;1.23;;
76262;SDS011;65080;50.908;6.916;2023-08-06T07:28:49;3.53;;;1.47;;
76262;SDS011;65080;50.908;6.916;2023-08-06T07:31:18;2.27;;;1.40;;
76262;SDS011;65080;50.908;6.916;2023-08-06T07:33:46;1.77;;;1.20;;
76262;SDS011;65080;50.908;6.916;2023-08-06T07:36:14;2.97;;;1.70;;
76262;SDS011;65080;50.908;6.916;2023-08-06T07:38:44;3.07;;;1.57;;
76262;SDS011;65080;50.908;6.916;2023-08-06T07:41:12;2.23;;;1.60;;
76262;SDS011;65080;50.908;6.916;2023-08-06T07:43:41;2.17;;;1.53;;
76262;SDS011;65080;50.908;6.916;2023-08-06T07:46:09;5.60;;;2.00;;
76262;SDS011;65080;50.908;6.916;2023-08-06T07:48:39;3.03;;;1.70;;
76262;SDS011;65080;50.908;6.916;2023-08-06T07:51:08;3.50;;;2.03;;
76262;SDS011;65080;50.908;6.916;2023-08-06T07:53:36;3.20;;;1.63;;
76262;SDS011;65080;50.908;6.916;2023-08-06T07:56:06;7.43;;;1.70;;
76262;SDS011;65080;50.908;6.916;2023-08-06T07:58:35;1.40;;;1.30;;
76262;SDS011;65080;50.908;6.916;2023-08-06T08:01:03;3.10;;;1.57;;
76262;SDS011;65080;50.908;6.916;2023-08-06T08:03:33;1.90;;;1.80;;
76262;SDS011;65080;50.908;6.916;2023-08-06T08:06:02;3.40;;;2.00;;
76262;SDS011;65080;50.908;6.916;2023-08-06T08:08:31;3.03;;;1.83;;
76262;SDS011;65080;50.908;6.916;2023-08-06T08:10:59;3.83;;;1.87;;
76262;SDS011;65080;50.908;6.916;2023-08-06T08:13:29;1.90;;;1.63;;
76262;SDS011;65080;50.908;6.916;2023-08-06T08:15:57;2.57;;;2.00;;
76262;SDS011;65080;50.908;6.916;2023-08-06T08:18:26;2.20;;;1.63;;
76262;SDS011;65080;50.908;6.916;2023-08-06T08:20:54;2.60;;;1.70;;
76262;SDS011;65080;50.908;6.916;2023-08-06T08:23:23;4.03;;;1.70;;
76262;SDS011;65080;50.908;6.916;2023-08-06T08:25:51;2.30;;;1.60;;
76262;SDS011;65080;50.908;6.916;2023-08-06T08:28:20;4.80;;;1.53;;
76262;SDS011;65080;50.908;6.916;2023-08-06T08:30:50;2.57;;;1.57;;
76262;SDS011;65080;50.908;6.916;2023-08-06T08:33:20;1.73;;;1.43;;
76262;SDS011;65080;50.908;6.916;2023-08-06T08:35:49;1.27;;;0.80;;
76262;SDS011;65080;50.908;6.916;2023-08-06T08:38:17;7.50;;;1.67;;
76262;SDS011;65080;50.908;6.916;2023-08-06T08:40:46;1.10;;;0.97;;
76262;SDS011;65080;50.908;6.916;2023-08-06T08:43:19;2.10;;;1.00;;
76262;SDS011;65080;50.908;6.916;2023-08-06T08:45:51;4.33;;;0.93;;
76262;SDS011;65080;50.908;6.916;2023-08-06T08:48:21;3.30;;;1.20;;
76262;SDS011;65080;50.908;6.916;2023-08-06T08:50:50;1.97;;;1.00;;
76262;SDS011;65080;50.908;6.916;2023-08-06T08:53:19;2.40;;;1.00;;
76262;SDS011;65080;50.908;6.916;2023-08-06T08:55:49;1.50;;;1.10;;
76262;SDS011;65080;50.908;6.916;2023-08-06T08:58:18;2.90;;;1.40;;
76262;SDS011;65080;50.908;6.916;2023-08-06T09:00:46;2.27;;;0.90;;
76262;SDS011;65080;50.908;6.916;2023-08-06T09:03:17;2.07;;;1.37;;
76262;SDS011;65080;50.908;6.916;2023-08-06T09:05:45;1.70;;;1.00;;
76262;SDS011;65080;50.908;6.916;2023-08-06T09:08:17;1.80;;;1.10;;
76262;SDS011;65080;50.908;6.916;2023-08-06T09:10:49;1.23;;;0.80;;
76262;SDS011;65080;50.908;6.916;2023-08-06T09:13:18;2.73;;;1.00;;
76262;SDS011;65080;50.908;6.916;2023-08-06T09:15:47;1.70;;;0.90;;
76262;SDS011;65080;50.908;6.916;2023-08-06T09:18:25;1.47;;;0.97;;
76262;SDS011;65080;50.908;6.916;2023-08-06T09:20:55;1.53;;;1.00;;
76262;SDS011;65080;50.908;6.916;2023-08-06T09:23:27;1.40;;;1.00;;
76262;SDS011;65080;50.908;6.916;2023-08-06T09:25:57;1.20;;;0.90;;
76262;SDS011;65080;50.908;6.916;2023-08-06T09:28:31;1.70;;;1.30;;
76262;SDS011;65080;50.908;6.916;2023-08-06T09:31:05;1.50;;;1.37;;
76262;SDS011;65080;50.908;6.916;2023-08-06T09:33:34;2.27;;;1.40;;
76262;SDS011;65080;50.908;6.916;2023-08-06T09:36:07;1.37;;;1.27;;
76262;SDS011;65080;50.908;6.916;2023-08-06T09:38:40;2.53;;;1.43;;
76262;SDS011;65080;50.908;6.916;2023-08-06T09:41:08;1.60;;;1.50;;
76262;SDS011;65080;50.908;6.916;2023-08-06T09:43:40;4.87;;;1.60;;
76262;SDS011;65080;50.908;6.916;2023-08-06T09:46:12;1.63;;;1.50;;
76262;SDS011;65080;50.908;6.916;2023-08-06T09:48:47;1.93;;;1.83;;
76262;SDS011;65080;50.908;6.916;2023-08-06T09:51:17;3.50;;;2.57;;
76262;SDS011;65080;50.908;6.916;2023-08-06T09:53:46;6.60;;;3.03;;
76262;SDS011;65080;50.908;6.916;2023-08-06T09:56:17;4.73;;;2.90;;
76262;SDS011;65080;50.908;6.916;2023-08-06T09:58:46;4.40;;;3.57;;
76262;SDS011;65080;50.908;6.916;2023-08-06T10:01:16;4.70;;;3.30;;
76262;SDS011;65080;50.908;6.916;2023-08-06T10:03:48;3.37;;;2.70;;
76262;SDS011;65080;50.908;6.916;2023-08-06T10:06:19;2.87;;;2.37;;
76262;SDS011;65080;50.908;6.916;2023-08-06T10:08:49;2.50;;;1.53;;
76262;SDS011;65080;50.908;6.916;2023-08-06T10:11:18;2.60;;;1.73;;
76262;SDS011;65080;50.908;6.916;2023-08-06T10:13:52;1.30;;;1.10;;
76262;SDS011;65080;50.908;6.916;2023-08-06T10:16:28;1.10;;;0.70;;
76262;SDS011;65080;50.908;6.916;2023-08-06T10:18:58;1.37;;;0.67;;
76262;SDS011;65080;50.908;6.916;2023-08-06T10:21:27;1.47;;;0.57;;
76262;SDS011;65080;50.908;6.916;2023-08-06T10:23:57;2.37;;;0.90;;
76262;SDS011;65080;50.908;6.916;2023-08-06T10:26:25;1.07;;;0.60;;
76262;SDS011;65080;50.908;6.916;2023-08-06T10:28:57;4.23;;;0.80;;
76262;SDS011;65080;50.908;6.916;2023-08-06T10:34:23;1.13;;;0.87;;
76262;SDS011;65080;50.908;6.916;2023-08-06T10:36:54;1.27;;;1.00;;
76262;SDS011;65080;50.908;6.916;2023-08-06T10:39:23;1.40;;;1.00;;
76262;SDS011;65080;50.908;6.916;2023-08-06T10:41:57;4.83;;;1.10;;
76262;SDS011;65080;50.908;6.916;2023-08-06T10:44:26;1.60;;;1.03;;
76262;SDS011;65080;50.908;6.916;2023-08-06T10:47:00;2.03;;;1.37;;
76262;SDS011;65080;50.908;6.916;2023-08-06T10:49:56;5.07;;;1.60;;
76262;SDS011;65080;50.908;6.916;2023-08-06T10:52:25;3.40;;;2.03;;
76262;SDS011;65080;50.908;6.916;2023-08-06T10:54:53;2.43;;;1.60;;
76262;SDS011;65080;50.908;6.916;2023-08-06T10:57:22;3.40;;;1.60;;
76262;SDS011;65080;50.908;6.916;2023-08-06T10:59:51;2.53;;;1.50;;
76262;SDS011;65080;50.908;6.916;2023-08-06T11:02:40;2.73;;;1.60;;
76262;SDS011;65080;50.908;6.916;2023-08-06T11:05:12;4.73;;;1.80;;
76262;SDS011;65080;50.908;6.916;2023-08-06T11:07:40;2.57;;;1.83;;
76262;SDS011;65080;50.908;6.916;2023-08-06T11:10:09;2.17;;;1.50;;
76262;SDS011;65080;50.908;6.916;2023-08-06T11:12:39;2.00;;;1.60;;
76262;SDS011;65080;50.908;6.916;2023-08-06T11:15:07;2.63;;;1.50;;
76262;SDS011;65080;50.908;6.916;2023-08-06T11:17:37;5.73;;;1.93;;
76262;SDS011;65080;50.908;6.916;2023-08-06T11:20:08;5.17;;;1.90;;
76262;SDS011;65080;50.908;6.916;2023-08-06T11:22:38;3.20;;;1.40;;
76262;SDS011;65080;50.908;6.916;2023-08-06T11:25:07;4.43;;;1.63;;
76262;SDS011;65080;50.908;6.916;2023-08-06T11:27:36;3.90;;;2.33;;
76262;SDS011;65080;50.908;6.916;2023-08-06T11:30:04;3.00;;;1.87;;
76262;SDS011;65080;50.908;6.916;2023-08-06T11:32:34;9.30;;;2.40;;
76262;SDS011;65080;50.908;6.916;2023-08-06T11:35:13;9.33;;;2.50;;
76262;SDS011;65080;50.908;6.916;2023-08-06T11:37:44;4.47;;;2.30;;
76262;SDS011;65080;50.908;6.916;2023-08-06T11:40:14;3.13;;;1.63;;
76262;SDS011;65080;50.908;6.916;2023-08-06T11:42:43;7.50;;;2.03;;
76262;SDS011;65080;50.908;6.916;2023-08-06T11:45:11;3.60;;;1.63;;
76262;SDS011;65080;50.908;6.916;2023-08-06T11:47:39;4.67;;;1.37;;
76262;SDS011;65080;50.908;6.916;2023-08-06T11:50:08;6.33;;;1.63;;
76262;SDS011;65080;50.908;6.916;2023-08-06T11:52:52;3.27;;;1.37;;
76262;SDS011;65080;50.908;6.916;2023-08-06T11:55:23;2.33;;;1.13;;
76262;SDS011;65080;50.908;6.916;2023-08-06T11:57:52;3.97;;;0.60;;
76262;SDS011;65080;50.908;6.916;2023-08-06T12:00:20;2.37;;;1.17;;
76262;SDS011;65080;50.908;6.916;2023-08-06T12:02:51;3.53;;;1.00;;
76262;SDS011;65080;50.908;6.916;2023-08-06T12:05:23;4.27;;;1.13;;
76262;SDS011;65080;50.908;6.916;2023-08-06T12:07:59;3.40;;;0.87;;
76262;SDS011;65080;50.908;6.916;2023-08-06T12:10:29;3.40;;;1.20;;
76262;SDS011;65080;50.908;6.916;2023-08-06T12:12:59;2.13;;;0.90;;
76262;SDS011;65080;50.908;6.916;2023-08-06T12:15:29;2.53;;;1.10;;
76262;SDS011;65080;50.908;6.916;2023-08-06T12:17:59;2.17;;;0.93;;
76262;SDS011;65080;50.908;6.916;2023-08-06T12:20:28;2.90;;;1.00;;
76262;SDS011;65080;50.908;6.916;2023-08-06T12:22:58;1.87;;;1.00;;
76262;SDS011;65080;50.908;6.916;2023-08-06T12:25:27;2.20;;;0.83;;
76262;SDS011;65080;50.908;6.916;2023-08-06T12:27:55;2.97;;;1.07;;
76262;SDS011;65080;50.908;6.916;2023-08-06T12:30:24;2.90;;;1.10;;
76262;SDS011;65080;50.908;6.916;2023-08-06T12:32:52;3.97;;;1.10;;
76262;SDS011;65080;50.908;6.916;2023-08-06T12:35:21;4.43;;;1.20;;
76262;SDS011;65080;50.908;6.916;2023-08-06T12:37:49;2.80;;;1.27;;
76262;SDS011;65080;50.908;6.916;2023-08-06T12:40:22;4.07;;;1.47;;
76262;SDS011;65080;50.908;6.916;2023-08-06T12:43:03;2.27;;;1.20;;
76262;SDS011;65080;50.908;6.916;2023-08-06T12:45:31;3.30;;;1.27;;
76262;SDS011;65080;50.908;6.916;2023-08-06T12:47:59;9.57;;;1.87;;
76262;SDS011;65080;50.908;6.916;2023-08-06T12:50:28;3.30;;;1.30;;
76262;SDS011;65080;50.908;6.916;2023-08-06T12:52:59;3.47;;;1.40;;
76262;SDS011;65080;50.908;6.916;2023-08-06T12:55:29;3.63;;;1.10;;
76262;SDS011;65080;50.908;6.916;2023-08-06T12:57:59;3.30;;;1.60;;
76262;SDS011;65080;50.908;6.916;2023-08-06T13:00:27;3.10;;;1.30;;
76262;SDS011;65080;50.908;6.916;2023-08-06T13:02:55;5.40;;;1.47;;
76262;SDS011;65080;50.908;6.916;2023-08-06T13:05:24;5.97;;;2.47;;
76262;SDS011;65080;50.908;6.916;2023-08-06T13:07:52;4.40;;;1.97;;
76262;SDS011;65080;50.908;6.916;2023-08-06T13:10:20;3.03;;;1.37;;
76262;SDS011;65080;50.908;6.916;2023-08-06T13:12:51;7.60;;;1.50;;
76262;SDS011;65080;50.908;6.916;2023-08-06T13:15:19;3.80;;;2.03;;
76262;SDS011;65080;50.908;6.916;2023-08-06T13:17:48;4.93;;;1.57;;
76262;SDS011;65080;50.908;6.916;2023-08-06T13:20:18;7.17;;;2.20;;
76262;SDS011;65080;50.908;6.916;2023-08-06T13:22:47;9.30;;;2.60;;
76262;SDS011;65080;50.908;6.916;2023-08-06T13:25:18;4.07;;;1.90;;
76262;SDS011;65080;50.908;6.916;2023-08-06T13:27:46;4.37;;;1.73;;
76262;SDS011;65080;50.908;6.916;2023-08-06T13:30:16;4.50;;;1.73;;
76262;SDS011;65080;50.908;6.916;2023-08-06T13:32:45;3.10;;;1.60;;
76262;SDS011;65080;50.908;6.916;2023-08-06T13:35:14;4.30;;;1.90;;
76262;SDS011;65080;50.908;6.916;2023-08-06T13:37:42;3.20;;;1.57;;
76262;SDS011;65080;50.908;6.916;2023-08-06T13:40:10;5.10;;;2.07;;
76262;SDS011;65080;50.908;6.916;2023-08-06T13:42:39;2.60;;;1.60;;
76262;SDS011;65080;50.908;6.916;2023-08-06T13:45:08;5.77;;;2.60;;
76262;SDS011;65080;50.908;6.916;2023-08-06T13:47:38;4.27;;;2.20;;
76262;SDS011;65080;50.908;6.916;2023-08-06T13:50:07;5.23;;;2.33;;
76262;SDS011;65080;50.908;6.916;2023-08-06T13:52:36;5.33;;;2.77;;
76262;SDS011;65080;50.908;6.916;2023-08-06T13:55:05;5.90;;;2.20;;
76262;SDS011;65080;50.908;6.916;2023-08-06T13:57:34;4.10;;;2.37;;
76262;SDS011;65080;50.908;6.916;2023-08-06T14:00:03;3.77;;;2.20;;
76262;SDS011;65080;50.908;6.916;2023-08-06T14:02:32;2.83;;;2.40;;
76262;SDS011;65080;50.908;6.916;2023-08-06T14:05:02;3.83;;;1.87;;
76262;SDS011;65080;50.908;6.916;2023-08-06T14:07:30;4.20;;;2.10;;
76262;SDS011;65080;50.908;6.916;2023-08-06T14:09:59;2.90;;;1.60;;
76262;SDS011;65080;50.908;6.916;2023-08-06T14:12:27;3.67;;;1.73;;
76262;SDS011;65080;50.908;6.916;2023-08-06T14:14:55;4.50;;;1.70;;
76262;SDS011;65080;50.908;6.916;2023-08-06T14:17:23;5.30;;;1.37;;
76262;SDS011;65080;50.908;6.916;2023-08-06T14:19:52;4.57;;;1.50;;
76262;SDS011;65080;50.908;6.916;2023-08-06T14:22:22;4.43;;;1.50;;
76262;SDS011;65080;50.908;6.916;2023-08-06T14:24:50;5.87;;;1.47;;
76262;SDS011;65080;50.908;6.916;2023-08-06T14:27:19;8.93;;;1.53;;
76262;SDS011;65080;50.908;6.916;2023-08-06T14:29:48;2.50;;;0.90;;
76262;SDS011;65080;50.908;6.916;2023-08-06T14:32:16;4.30;;;0.90;;
76262;SDS011;65080;50.908;6.916;2023-08-06T14:34:46;2.30;;;1.00;;
76262;SDS011;65080;50.908;6.916;2023-08-06T14:37:14;5.60;;;0.97;;
76262;SDS011;65080;50.908;6.916;2023-08-06T14:39:44;6.13;;;1.00;;
76262;SDS011;65080;50.908;6.916;2023-08-06T14:42:12;3.77;;;1.03;;
76262;SDS011;65080;50.908;6.916;2023-08-06T14:44:40;4.63;;;1.10;;
76262;SDS011;65080;50.908;6.916;2023-08-06T14:47:09;2.40;;;0.70;;
76262;SDS011;65080;50.908;6.916;2023-08-06T14:49:37;4.03;;;0.87;;
76262;SDS011;65080;50.908;6.916;2023-08-06T14:52:06;3.30;;;1.07;;
76262;SDS011;65080;50.908;6.916;2023-08-06T14:54:34;2.60;;;1.23;;
76262;SDS011;65080;50.908;6.916;2023-08-06T14:57:04;2.57;;;0.70;;
76262;SDS011;65080;50.908;6.916;2023-08-06T14:59:33;4.20;;;1.10;;
76262;SDS011;65080;50.908;6.916;2023-08-06T15:02:02;3.00;;;0.80;;
76262;SDS011;65080;50.908;6.916;2023-08-06T15:04:30;2.63;;;0.80;;